Anne Sibum — C4YC2 — position and weather

sailwx.info

Track history (hours):
 
Tides and Currents Weather Stations Pressure Air Temp Water Temp Dewpoint Dewpoint Depression Visibility Wind Speed Wind Dir Waves Ship Positions

Anne Sibum

Last reported at 2014-Jul-26 06:33 UTC. Time now 2014-Jul-26 07:07 UTC.
Position N 59°29' E 020°03'.

Length 151 m; draft 8.5 m.

Type: Ship (hazmat cat A). MMSI: 209322000.

Date/timePositionNaut miles runAvg speedWind from/ knotsBaromVisibWave heightAir tempDewpointWater temp
2014-Jul-26 06:33N 59°29' E 020°03'4613.6
2014-Jul-26 03:13N 60°05' E 019°09'6811.9
2014-Jul-25 21:33N 60°59' E 020°30'21 1.3
2014-Jul-25 05:20N 61°08' E 021°10'2212.3
2014-Jul-25 03:33N 61°03' E 020°25'9112.9
2014-Jul-24 20:30N 60°44' E 017°22'135 4.7
2014-Jul-23 15:33N 59°32' E 021°12'1212.4
2014-Jul-23 14:33N 59°30' E 021°36'1212.4
2014-Jul-23 13:33N 59°30' E 022°00'1712.5
2014-Jul-23 12:10N 59°31' E 022°35'2312.7
2014-Jul-23 10:22N 59°37' E 023°18'1312.7
2014-Jul-23 09:18N 59°41' E 023°43'1212.6
2014-Jul-23 08:21N 59°44' E 024°06'3712.6
2014-Jul-23 05:26N 59°53' E 025°17'1112.8
2014-Jul-23 04:33N 59°55' E 025°39'1312.6
2014-Jul-23 03:33N 59°58' E 026°04'1313.0
2014-Jul-23 02:33N 60°01' E 026°29'1212.3
2014-Jul-23 01:33N 60°00' E 026°53'1212.0
2014-Jul-23 00:33N 60°03' E 027°16'8611.6
2014-Jul-22 17:10N 59°54' E 030°07'3 0.2
2014-Jul-22 00:14N 59°52' E 030°12'108 5.2
2014-Jul-21 03:28N 59°59' E 026°38'1513.9
2014-Jul-21 02:26N 59°55' E 026°10'1213.8
2014-Jul-21 01:32N 59°52' E 025°46'1313.8
2014-Jul-21 00:33N 59°49' E 025°20'1413.8
2014-Jul-20 23:34N 59°46' E 024°54'1413.8
2014-Jul-20 22:33N 59°44' E 024°26'1413.8
2014-Jul-20 21:33N 59°39' E 024°00'1413.8
2014-Jul-20 20:33N 59°34' E 023°35'1413.8
2014-Jul-20 19:33N 59°30' E 023°09'1614.0
2014-Jul-20 18:26N 59°25' E 022°40'3913.5
2014-Jul-20 15:33N 58°58' E 021°44'4413.8
2014-Jul-20 12:22N 58°16' E 021°19'85 2.8
2014-Jul-19 06:18N 56°53' E 020°44'912.1
2014-Jul-19 05:33N 56°44' E 020°40'1212.2
2014-Jul-19 04:32N 56°32' E 020°40'1212.1
2014-Jul-19 03:34N 56°20' E 020°40'1212.0
2014-Jul-19 02:33N 56°08' E 020°40'2211.0
2014-Jul-19 00:33N 55°48' E 020°54'10 9.8
2014-Jul-18 23:32N 55°41' E 021°08'3 2.7
2014-Jul-18 22:31N 55°39' E 021°09'0 0.0
2014-Jul-18 21:30N 55°39' E 021°09'36 2.6
2014-Jul-18 07:16N 55°45' E 020°06'1714.4
2014-Jul-18 06:05N 55°45' E 019°36'814.4
2014-Jul-18 05:33N 55°45' E 019°22'1814.4
2014-Jul-18 04:20N 55°45' E 018°51'1114.3
2014-Jul-18 03:33N 55°45' E 018°31'2014.2
2014-Jul-18 02:07N 55°45' E 017°55'1114.1
2014-Jul-18 01:22N 55°45' E 017°36'1214.0
2014-Jul-18 00:32N 55°45' E 017°15'1414.2
2014-Jul-17 23:33N 55°42' E 016°51'2914.1
2014-Jul-17 21:30N 55°35' E 016°01'1314.1
2014-Jul-17 20:33N 55°32' E 015°39'1414.3
2014-Jul-17 19:34N 55°28' E 015°14'1414.3
2014-Jul-17 18:33N 55°25' E 014°49'1413.6
2014-Jul-17 17:33N 55°17' E 014°30'1414.2
2014-Jul-17 16:34N 55°06' E 014°15'1413.7
2014-Jul-17 15:34N 54°59' E 013°54'1414.2
2014-Jul-17 14:34N 54°54' E 013°31'1414.4
2014-Jul-17 13:33N 54°49' E 013°07'1414.2
2014-Jul-17 12:34N 54°45' E 012°44'1414.2
2014-Jul-17 11:34N 54°37' E 012°24'1413.9
2014-Jul-17 10:33N 54°25' E 012°11'1414.2
2014-Jul-17 09:33N 54°25' E 011°46'1414.3
2014-Jul-17 08:33N 54°31' E 011°24'1414.5
2014-Jul-17 07:33N 54°35' E 011°00'2713.7
2014-Jul-17 05:33N 54°27' E 010°15'21 3.9
2014-Jul-17 00:11N 54°19' E 009°43'4 6.0
2014-Jul-16 23:30N 54°16' E 009°38'5 4.9
2014-Jul-16 22:33N 54°12' E 009°33'6 5.8
2014-Jul-16 21:33N 54°10' E 009°24'4 4.2
2014-Jul-16 20:32N 54°06' E 009°20'8 7.0
2014-Jul-16 19:22N 53°59' E 009°16'4 5.1
2014-Jul-16 18:32N 53°55' E 009°12'2 2.4
2014-Jul-16 17:31N 53°54' E 009°09'1 1.5
2014-Jul-16 16:33N 53°53' E 009°07'5 5.0
2014-Jul-16 15:33N 53°53' E 009°15'1513.2
2014-Jul-16 14:23N 53°40' E 009°30'911.1
2014-Jul-16 13:33N 53°34' E 009°42'8 7.0
2014-Jul-16 12:28N 53°32' E 009°55'0 0.0
2014-Jul-16 11:19N 53°32' E 009°55'0 0.0
2014-Jul-16 10:30N 53°32' E 009°55'0 0.0
2014-Jul-16 09:33N 53°32' E 009°55'0 0.0
2014-Jul-16 08:29N 53°32' E 009°55'0 0.0
2014-Jul-16 07:29N 53°32' E 009°55'  
Track history (hours):
 
Tides and Currents Weather Stations Pressure Air Temp Water Temp Dewpoint Dewpoint Depression Visibility Wind Speed Wind Dir Waves Ship Positions

Anne Sibum

Last reported at 2014-Jul-26 06:33 UTC. Time now 2014-Jul-26 07:07 UTC.
Position N 59°29' E 020°03'.

Length 151 m; draft 8.5 m.

Type: Ship (hazmat cat A). MMSI: 209322000.

Date/timePositionNaut miles runAvg speedWind from/ knotsBaromVisibWave heightAir tempDewpointWater temp
2014-Jul-26 06:33N 59°29' E 020°03'4613.6
2014-Jul-26 03:13N 60°05' E 019°09'6811.9
2014-Jul-25 21:33N 60°59' E 020°30'21 1.3
2014-Jul-25 05:20N 61°08' E 021°10'2212.3
2014-Jul-25 03:33N 61°03' E 020°25'9112.9
2014-Jul-24 20:30N 60°44' E 017°22'135 4.7
2014-Jul-23 15:33N 59°32' E 021°12'1212.4
2014-Jul-23 14:33N 59°30' E 021°36'1212.4
2014-Jul-23 13:33N 59°30' E 022°00'1712.5
2014-Jul-23 12:10N 59°31' E 022°35'2312.7
2014-Jul-23 10:22N 59°37' E 023°18'1312.7
2014-Jul-23 09:18N 59°41' E 023°43'1212.6
2014-Jul-23 08:21N 59°44' E 024°06'3712.6
2014-Jul-23 05:26N 59°53' E 025°17'1112.8
2014-Jul-23 04:33N 59°55' E 025°39'1312.6
2014-Jul-23 03:33N 59°58' E 026°04'1313.0
2014-Jul-23 02:33N 60°01' E 026°29'1212.3
2014-Jul-23 01:33N 60°00' E 026°53'1212.0
2014-Jul-23 00:33N 60°03' E 027°16'8611.6
2014-Jul-22 17:10N 59°54' E 030°07'3 0.2
2014-Jul-22 00:14N 59°52' E 030°12'108 5.2
2014-Jul-21 03:28N 59°59' E 026°38'1513.9
2014-Jul-21 02:26N 59°55' E 026°10'1213.8
2014-Jul-21 01:32N 59°52' E 025°46'1313.8
2014-Jul-21 00:33N 59°49' E 025°20'1413.8
2014-Jul-20 23:34N 59°46' E 024°54'1413.8
2014-Jul-20 22:33N 59°44' E 024°26'1413.8
2014-Jul-20 21:33N 59°39' E 024°00'1413.8
2014-Jul-20 20:33N 59°34' E 023°35'1413.8
2014-Jul-20 19:33N 59°30' E 023°09'1614.0
2014-Jul-20 18:26N 59°25' E 022°40'3913.5
2014-Jul-20 15:33N 58°58' E 021°44'4413.8
2014-Jul-20 12:22N 58°16' E 021°19'85 2.8
2014-Jul-19 06:18N 56°53' E 020°44'912.1
2014-Jul-19 05:33N 56°44' E 020°40'1212.2
2014-Jul-19 04:32N 56°32' E 020°40'1212.1
2014-Jul-19 03:34N 56°20' E 020°40'1212.0
2014-Jul-19 02:33N 56°08' E 020°40'2211.0
2014-Jul-19 00:33N 55°48' E 020°54'10 9.8
2014-Jul-18 23:32N 55°41' E 021°08'3 2.7
2014-Jul-18 22:31N 55°39' E 021°09'0 0.0
2014-Jul-18 21:30N 55°39' E 021°09'36 2.6
2014-Jul-18 07:16N 55°45' E 020°06'1714.4
2014-Jul-18 06:05N 55°45' E 019°36'814.4
2014-Jul-18 05:33N 55°45' E 019°22'1814.4
2014-Jul-18 04:20N 55°45' E 018°51'1114.3
2014-Jul-18 03:33N 55°45' E 018°31'2014.2
2014-Jul-18 02:07N 55°45' E 017°55'1114.1
2014-Jul-18 01:22N 55°45' E 017°36'1214.0
2014-Jul-18 00:32N 55°45' E 017°15'1414.2
2014-Jul-17 23:33N 55°42' E 016°51'2914.1
2014-Jul-17 21:30N 55°35' E 016°01'1314.1
2014-Jul-17 20:33N 55°32' E 015°39'1414.3
2014-Jul-17 19:34N 55°28' E 015°14'1414.3
2014-Jul-17 18:33N 55°25' E 014°49'1413.6
2014-Jul-17 17:33N 55°17' E 014°30'1414.2
2014-Jul-17 16:34N 55°06' E 014°15'1413.7
2014-Jul-17 15:34N 54°59' E 013°54'1414.2
2014-Jul-17 14:34N 54°54' E 013°31'1414.4
2014-Jul-17 13:33N 54°49' E 013°07'1414.2
2014-Jul-17 12:34N 54°45' E 012°44'1414.2
2014-Jul-17 11:34N 54°37' E 012°24'1413.9
2014-Jul-17 10:33N 54°25' E 012°11'1414.2
2014-Jul-17 09:33N 54°25' E 011°46'1414.3
2014-Jul-17 08:33N 54°31' E 011°24'1414.5
2014-Jul-17 07:33N 54°35' E 011°00'2713.7
2014-Jul-17 05:33N 54°27' E 010°15'21 3.9
2014-Jul-17 00:11N 54°19' E 009°43'4 6.0
2014-Jul-16 23:30N 54°16' E 009°38'5 4.9
2014-Jul-16 22:33N 54°12' E 009°33'6 5.8
2014-Jul-16 21:33N 54°10' E 009°24'4 4.2
2014-Jul-16 20:32N 54°06' E 009°20'8 7.0
2014-Jul-16 19:22N 53°59' E 009°16'4 5.1
2014-Jul-16 18:32N 53°55' E 009°12'2 2.4
2014-Jul-16 17:31N 53°54' E 009°09'1 1.5
2014-Jul-16 16:33N 53°53' E 009°07'5 5.0
2014-Jul-16 15:33N 53°53' E 009°15'1513.2
2014-Jul-16 14:23N 53°40' E 009°30'911.1
2014-Jul-16 13:33N 53°34' E 009°42'8 7.0
2014-Jul-16 12:28N 53°32' E 009°55'0 0.0
2014-Jul-16 11:19N 53°32' E 009°55'0 0.0
2014-Jul-16 10:30N 53°32' E 009°55'0 0.0
2014-Jul-16 09:33N 53°32' E 009°55'0 0.0
2014-Jul-16 08:29N 53°32' E 009°55'0 0.0
2014-Jul-16 07:29N 53°32' E 009°55'  

Dump ship's entire track history